sensor_id;sensor_type;location;lat;lon;timestamp;P1;durP1;ratioP1;P2;durP2;ratioP2
17310;SDS011;8773;43.300;0.394;2023-07-28T00:00:37;4.20;;;3.90;;
17310;SDS011;8773;43.300;0.394;2023-07-28T00:03:04;4.50;;;4.20;;
17310;SDS011;8773;43.300;0.394;2023-07-28T00:05:32;4.75;;;4.10;;
17310;SDS011;8773;43.300;0.394;2023-07-28T00:08:01;4.30;;;3.92;;
17310;SDS011;8773;43.300;0.394;2023-07-28T00:10:29;5.00;;;4.47;;
17310;SDS011;8773;43.300;0.394;2023-07-28T00:12:56;4.43;;;4.13;;
17310;SDS011;8773;43.300;0.394;2023-07-28T00:15:24;4.85;;;4.45;;
17310;SDS011;8773;43.300;0.394;2023-07-28T00:17:51;6.05;;;4.53;;
17310;SDS011;8773;43.300;0.394;2023-07-28T00:20:19;4.60;;;4.30;;
17310;SDS011;8773;43.300;0.394;2023-07-28T00:22:47;5.45;;;4.50;;
17310;SDS011;8773;43.300;0.394;2023-07-28T00:25:15;4.65;;;4.35;;
17310;SDS011;8773;43.300;0.394;2023-07-28T00:27:45;4.93;;;4.53;;
17310;SDS011;8773;43.300;0.394;2023-07-28T00:30:13;4.85;;;4.45;;
17310;SDS011;8773;43.300;0.394;2023-07-28T00:32:40;5.05;;;4.57;;
17310;SDS011;8773;43.300;0.394;2023-07-28T00:35:08;4.95;;;4.53;;
17310;SDS011;8773;43.300;0.394;2023-07-28T00:37:36;4.60;;;4.20;;
17310;SDS011;8773;43.300;0.394;2023-07-28T00:40:03;4.90;;;4.50;;
17310;SDS011;8773;43.300;0.394;2023-07-28T00:42:33;5.18;;;4.80;;
17310;SDS011;8773;43.300;0.394;2023-07-28T00:45:03;4.85;;;4.45;;
17310;SDS011;8773;43.300;0.394;2023-07-28T00:47:31;5.97;;;4.38;;
17310;SDS011;8773;43.300;0.394;2023-07-28T00:50:01;4.72;;;4.30;;
17310;SDS011;8773;43.300;0.394;2023-07-28T00:52:29;4.97;;;4.47;;
17310;SDS011;8773;43.300;0.394;2023-07-28T00:54:57;4.57;;;4.25;;
17310;SDS011;8773;43.300;0.394;2023-07-28T00:57:25;4.82;;;4.22;;
17310;SDS011;8773;43.300;0.394;2023-07-28T00:59:54;4.53;;;4.10;;
17310;SDS011;8773;43.300;0.394;2023-07-28T01:02:21;4.80;;;4.40;;
17310;SDS011;8773;43.300;0.394;2023-07-28T01:04:49;4.45;;;4.03;;
17310;SDS011;8773;43.300;0.394;2023-07-28T01:07:20;4.85;;;4.35;;
17310;SDS011;8773;43.300;0.394;2023-07-28T01:09:55;4.93;;;4.43;;
17310;SDS011;8773;43.300;0.394;2023-07-28T01:12:28;4.40;;;4.10;;
17310;SDS011;8773;43.300;0.394;2023-07-28T01:14:57;4.30;;;4.00;;
17310;SDS011;8773;43.300;0.394;2023-07-28T01:17:24;4.50;;;4.10;;
17310;SDS011;8773;43.300;0.394;2023-07-28T01:19:52;6.15;;;4.20;;
17310;SDS011;8773;43.300;0.394;2023-07-28T01:22:26;4.38;;;4.07;;
17310;SDS011;8773;43.300;0.394;2023-07-28T01:25:18;4.22;;;3.92;;
17310;SDS011;8773;43.300;0.394;2023-07-28T01:27:58;4.65;;;4.25;;
17310;SDS011;8773;43.300;0.394;2023-07-28T01:30:27;4.43;;;4.03;;
17310;SDS011;8773;43.300;0.394;2023-07-28T01:32:56;4.63;;;4.22;;
17310;SDS011;8773;43.300;0.394;2023-07-28T01:35:25;5.03;;;4.10;;
17310;SDS011;8773;43.300;0.394;2023-07-28T01:37:53;4.13;;;3.75;;
17310;SDS011;8773;43.300;0.394;2023-07-28T01:40:23;5.25;;;3.88;;
17310;SDS011;8773;43.300;0.394;2023-07-28T01:42:51;4.45;;;4.05;;
17310;SDS011;8773;43.300;0.394;2023-07-28T01:45:20;4.95;;;4.55;;
17310;SDS011;8773;43.300;0.394;2023-07-28T01:47:47;4.18;;;3.88;;
17310;SDS011;8773;43.300;0.394;2023-07-28T01:50:15;6.07;;;4.20;;
17310;SDS011;8773;43.300;0.394;2023-07-28T01:52:43;4.38;;;4.03;;
17310;SDS011;8773;43.300;0.394;2023-07-28T01:55:11;4.85;;;4.45;;
17310;SDS011;8773;43.300;0.394;2023-07-28T01:57:38;4.63;;;4.18;;
17310;SDS011;8773;43.300;0.394;2023-07-28T02:00:07;4.10;;;3.90;;
17310;SDS011;8773;43.300;0.394;2023-07-28T02:02:36;4.63;;;4.22;;
17310;SDS011;8773;43.300;0.394;2023-07-28T02:05:04;6.30;;;4.10;;
17310;SDS011;8773;43.300;0.394;2023-07-28T02:07:32;4.00;;;3.70;;
17310;SDS011;8773;43.300;0.394;2023-07-28T02:09:59;4.47;;;3.67;;
17310;SDS011;8773;43.300;0.394;2023-07-28T02:12:27;4.07;;;3.60;;
17310;SDS011;8773;43.300;0.394;2023-07-28T02:14:54;4.10;;;3.80;;
17310;SDS011;8773;43.300;0.394;2023-07-28T02:17:25;4.10;;;3.80;;
17310;SDS011;8773;43.300;0.394;2023-07-28T02:19:54;4.35;;;3.97;;
17310;SDS011;8773;43.300;0.394;2023-07-28T02:22:21;4.35;;;4.05;;
17310;SDS011;8773;43.300;0.394;2023-07-28T02:24:49;4.00;;;3.60;;
17310;SDS011;8773;43.300;0.394;2023-07-28T02:27:16;3.92;;;3.63;;
17310;SDS011;8773;43.300;0.394;2023-07-28T02:29:44;4.15;;;3.75;;
17310;SDS011;8773;43.300;0.394;2023-07-28T02:32:12;4.20;;;3.90;;
17310;SDS011;8773;43.300;0.394;2023-07-28T02:34:39;4.10;;;3.80;;
17310;SDS011;8773;43.300;0.394;2023-07-28T02:37:08;4.25;;;3.85;;
17310;SDS011;8773;43.300;0.394;2023-07-28T02:39:36;4.20;;;3.83;;
17310;SDS011;8773;43.300;0.394;2023-07-28T02:42:03;4.07;;;3.78;;
17310;SDS011;8773;43.300;0.394;2023-07-28T02:44:31;4.20;;;3.90;;
17310;SDS011;8773;43.300;0.394;2023-07-28T02:46:59;3.58;;;3.38;;
17310;SDS011;8773;43.300;0.394;2023-07-28T02:49:26;3.53;;;3.22;;
17310;SDS011;8773;43.300;0.394;2023-07-28T02:51:54;3.67;;;3.38;;
17310;SDS011;8773;43.300;0.394;2023-07-28T02:54:23;4.45;;;4.13;;
17310;SDS011;8773;43.300;0.394;2023-07-28T02:56:51;3.67;;;3.40;;
17310;SDS011;8773;43.300;0.394;2023-07-28T02:59:19;4.35;;;3.95;;
17310;SDS011;8773;43.300;0.394;2023-07-28T03:01:48;4.03;;;3.67;;
17310;SDS011;8773;43.300;0.394;2023-07-28T03:04:16;4.40;;;3.78;;
17310;SDS011;8773;43.300;0.394;2023-07-28T03:06:44;5.30;;;4.40;;
17310;SDS011;8773;43.300;0.394;2023-07-28T03:09:11;4.18;;;3.85;;
17310;SDS011;8773;43.300;0.394;2023-07-28T03:11:48;4.00;;;3.60;;
17310;SDS011;8773;43.300;0.394;2023-07-28T03:14:18;4.45;;;4.10;;
17310;SDS011;8773;43.300;0.394;2023-07-28T03:16:45;4.50;;;4.20;;
17310;SDS011;8773;43.300;0.394;2023-07-28T03:19:13;4.30;;;4.00;;
17310;SDS011;8773;43.300;0.394;2023-07-28T03:21:40;3.95;;;3.67;;
17310;SDS011;8773;43.300;0.394;2023-07-28T03:24:08;4.20;;;3.80;;
17310;SDS011;8773;43.300;0.394;2023-07-28T03:26:35;4.43;;;4.07;;
17310;SDS011;8773;43.300;0.394;2023-07-28T03:29:05;3.80;;;3.60;;
17310;SDS011;8773;43.300;0.394;2023-07-28T03:31:32;3.85;;;3.55;;
17310;SDS011;8773;43.300;0.394;2023-07-28T03:34:04;4.97;;;4.00;;
17310;SDS011;8773;43.300;0.394;2023-07-28T03:36:31;4.75;;;3.17;;
17310;SDS011;8773;43.300;0.394;2023-07-28T03:38:59;3.45;;;3.15;;
17310;SDS011;8773;43.300;0.394;2023-07-28T03:41:27;3.92;;;3.63;;
17310;SDS011;8773;43.300;0.394;2023-07-28T03:43:54;3.25;;;3.05;;
17310;SDS011;8773;43.300;0.394;2023-07-28T03:46:23;3.55;;;3.35;;
17310;SDS011;8773;43.300;0.394;2023-07-28T03:48:51;3.55;;;3.20;;
17310;SDS011;8773;43.300;0.394;2023-07-28T03:51:18;3.70;;;3.40;;
17310;SDS011;8773;43.300;0.394;2023-07-28T03:53:46;3.70;;;3.40;;
17310;SDS011;8773;43.300;0.394;2023-07-28T03:56:14;3.55;;;3.25;;
17310;SDS011;8773;43.300;0.394;2023-07-28T03:58:41;3.80;;;3.40;;
17310;SDS011;8773;43.300;0.394;2023-07-28T04:01:09;3.95;;;3.53;;
17310;SDS011;8773;43.300;0.394;2023-07-28T04:03:38;3.80;;;3.58;;
17310;SDS011;8773;43.300;0.394;2023-07-28T04:06:09;4.53;;;3.42;;
17310;SDS011;8773;43.300;0.394;2023-07-28T04:08:37;3.80;;;3.55;;
17310;SDS011;8773;43.300;0.394;2023-07-28T04:11:05;3.33;;;3.13;;
17310;SDS011;8773;43.300;0.394;2023-07-28T04:13:33;5.30;;;3.55;;
17310;SDS011;8773;43.300;0.394;2023-07-28T04:16:01;3.42;;;3.13;;
17310;SDS011;8773;43.300;0.394;2023-07-28T04:18:29;4.22;;;3.38;;
17310;SDS011;8773;43.300;0.394;2023-07-28T04:20:58;3.35;;;3.13;;
17310;SDS011;8773;43.300;0.394;2023-07-28T04:23:26;3.60;;;3.40;;
17310;SDS011;8773;43.300;0.394;2023-07-28T04:25:54;3.47;;;3.17;;
17310;SDS011;8773;43.300;0.394;2023-07-28T04:28:21;3.45;;;3.15;;
17310;SDS011;8773;43.300;0.394;2023-07-28T04:30:49;3.90;;;3.35;;
17310;SDS011;8773;43.300;0.394;2023-07-28T04:33:16;3.72;;;3.38;;
17310;SDS011;8773;43.300;0.394;2023-07-28T04:35:44;3.40;;;3.20;;
17310;SDS011;8773;43.300;0.394;2023-07-28T04:38:12;3.47;;;3.17;;
17310;SDS011;8773;43.300;0.394;2023-07-28T04:40:40;3.25;;;3.05;;
17310;SDS011;8773;43.300;0.394;2023-07-28T04:43:07;3.13;;;2.92;;
17310;SDS011;8773;43.300;0.394;2023-07-28T04:45:35;3.50;;;3.20;;
17310;SDS011;8773;43.300;0.394;2023-07-28T04:48:03;2.92;;;2.72;;
17310;SDS011;8773;43.300;0.394;2023-07-28T04:50:31;3.33;;;3.13;;
17310;SDS011;8773;43.300;0.394;2023-07-28T04:52:58;5.07;;;3.40;;
17310;SDS011;8773;43.300;0.394;2023-07-28T04:55:30;3.47;;;3.08;;
17310;SDS011;8773;43.300;0.394;2023-07-28T04:57:57;3.50;;;3.03;;
17310;SDS011;8773;43.300;0.394;2023-07-28T05:00:25;3.00;;;2.65;;
17310;SDS011;8773;43.300;0.394;2023-07-28T05:02:53;3.35;;;3.05;;
17310;SDS011;8773;43.300;0.394;2023-07-28T05:05:20;3.30;;;3.00;;
17310;SDS011;8773;43.300;0.394;2023-07-28T05:07:51;3.08;;;2.80;;
17310;SDS011;8773;43.300;0.394;2023-07-28T05:10:18;3.05;;;2.90;;
17310;SDS011;8773;43.300;0.394;2023-07-28T05:12:47;3.45;;;3.15;;
17310;SDS011;8773;43.300;0.394;2023-07-28T05:15:15;4.25;;;3.05;;
17310;SDS011;8773;43.300;0.394;2023-07-28T05:17:43;3.38;;;3.17;;
17310;SDS011;8773;43.300;0.394;2023-07-28T05:20:10;4.03;;;2.85;;
17310;SDS011;8773;43.300;0.394;2023-07-28T05:22:39;3.65;;;3.30;;
17310;SDS011;8773;43.300;0.394;2023-07-28T05:25:06;3.22;;;3.03;;
17310;SDS011;8773;43.300;0.394;2023-07-28T05:27:34;3.38;;;3.08;;
17310;SDS011;8773;43.300;0.394;2023-07-28T05:30:03;4.03;;;3.40;;
17310;SDS011;8773;43.300;0.394;2023-07-28T05:32:32;3.38;;;3.10;;
17310;SDS011;8773;43.300;0.394;2023-07-28T05:34:59;3.97;;;3.03;;
17310;SDS011;8773;43.300;0.394;2023-07-28T05:37:27;5.10;;;3.47;;
17310;SDS011;8773;43.300;0.394;2023-07-28T05:39:54;3.25;;;2.97;;
17310;SDS011;8773;43.300;0.394;2023-07-28T05:42:22;3.45;;;3.20;;
17310;SDS011;8773;43.300;0.394;2023-07-28T05:44:50;5.43;;;3.35;;
17310;SDS011;8773;43.300;0.394;2023-07-28T05:47:21;3.03;;;2.70;;
17310;SDS011;8773;43.300;0.394;2023-07-28T05:49:49;3.40;;;3.10;;
17310;SDS011;8773;43.300;0.394;2023-07-28T05:52:16;2.80;;;2.70;;
17310;SDS011;8773;43.300;0.394;2023-07-28T05:54:43;3.55;;;3.17;;
17310;SDS011;8773;43.300;0.394;2023-07-28T05:57:11;3.42;;;2.80;;
17310;SDS011;8773;43.300;0.394;2023-07-28T05:59:39;3.05;;;2.85;;
17310;SDS011;8773;43.300;0.394;2023-07-28T06:02:06;3.22;;;3.00;;
17310;SDS011;8773;43.300;0.394;2023-07-28T06:04:35;2.67;;;2.58;;
17310;SDS011;8773;43.300;0.394;2023-07-28T06:07:03;3.40;;;3.10;;
17310;SDS011;8773;43.300;0.394;2023-07-28T06:09:31;4.15;;;2.70;;
17310;SDS011;8773;43.300;0.394;2023-07-28T06:11:59;3.83;;;3.03;;
17310;SDS011;8773;43.300;0.394;2023-07-28T06:14:27;5.25;;;2.88;;
17310;SDS011;8773;43.300;0.394;2023-07-28T06:16:54;2.63;;;2.33;;
17310;SDS011;8773;43.300;0.394;2023-07-28T06:19:22;2.88;;;2.55;;
17310;SDS011;8773;43.300;0.394;2023-07-28T06:21:51;3.55;;;2.42;;
17310;SDS011;8773;43.300;0.394;2023-07-28T06:24:19;2.95;;;2.67;;
17310;SDS011;8773;43.300;0.394;2023-07-28T06:26:47;3.40;;;3.10;;
17310;SDS011;8773;43.300;0.394;2023-07-28T06:29:14;3.13;;;2.58;;
17310;SDS011;8773;43.300;0.394;2023-07-28T06:31:42;4.22;;;2.85;;
17310;SDS011;8773;43.300;0.394;2023-07-28T06:34:09;2.63;;;2.50;;
17310;SDS011;8773;43.300;0.394;2023-07-28T06:36:37;2.80;;;2.60;;
17310;SDS011;8773;43.300;0.394;2023-07-28T06:39:09;2.50;;;2.40;;
17310;SDS011;8773;43.300;0.394;2023-07-28T06:41:36;2.92;;;2.72;;
17310;SDS011;8773;43.300;0.394;2023-07-28T06:44:04;2.60;;;2.40;;
17310;SDS011;8773;43.300;0.394;2023-07-28T06:46:32;2.55;;;2.45;;
17310;SDS011;8773;43.300;0.394;2023-07-28T06:48:59;2.90;;;2.30;;
17310;SDS011;8773;43.300;0.394;2023-07-28T06:51:27;2.75;;;2.55;;
17310;SDS011;8773;43.300;0.394;2023-07-28T06:53:54;2.53;;;2.42;;
17310;SDS011;8773;43.300;0.394;2023-07-28T06:56:23;2.47;;;2.30;;
17310;SDS011;8773;43.300;0.394;2023-07-28T06:58:51;2.22;;;2.13;;
17310;SDS011;8773;43.300;0.394;2023-07-28T07:01:35;3.08;;;2.53;;
17310;SDS011;8773;43.300;0.394;2023-07-28T07:04:03;2.58;;;2.38;;
17310;SDS011;8773;43.300;0.394;2023-07-28T07:06:30;2.35;;;2.15;;
17310;SDS011;8773;43.300;0.394;2023-07-28T07:08:58;2.58;;;2.38;;
17310;SDS011;8773;43.300;0.394;2023-07-28T07:11:27;2.25;;;2.15;;
17310;SDS011;8773;43.300;0.394;2023-07-28T07:13:54;2.40;;;2.20;;
17310;SDS011;8773;43.300;0.394;2023-07-28T07:16:22;3.17;;;2.17;;
17310;SDS011;8773;43.300;0.394;2023-07-28T07:18:50;2.60;;;2.08;;
17310;SDS011;8773;43.300;0.394;2023-07-28T07:21:18;3.38;;;2.53;;
17310;SDS011;8773;43.300;0.394;2023-07-28T07:23:46;2.15;;;1.95;;
17310;SDS011;8773;43.300;0.394;2023-07-28T07:26:13;2.65;;;2.30;;
17310;SDS011;8773;43.300;0.394;2023-07-28T07:28:42;2.20;;;2.03;;
17310;SDS011;8773;43.300;0.394;2023-07-28T07:31:11;3.08;;;2.30;;
17310;SDS011;8773;43.300;0.394;2023-07-28T07:33:39;2.70;;;2.42;;
17310;SDS011;8773;43.300;0.394;2023-07-28T07:36:11;2.30;;;2.20;;
17310;SDS011;8773;43.300;0.394;2023-07-28T07:38:39;2.30;;;2.10;;
17310;SDS011;8773;43.300;0.394;2023-07-28T07:41:07;2.28;;;2.17;;
17310;SDS011;8773;43.300;0.394;2023-07-28T07:43:35;2.78;;;2.33;;
17310;SDS011;8773;43.300;0.394;2023-07-28T07:46:04;2.00;;;1.90;;
17310;SDS011;8773;43.300;0.394;2023-07-28T07:48:32;3.17;;;2.03;;
17310;SDS011;8773;43.300;0.394;2023-07-28T07:50:59;2.10;;;1.90;;
17310;SDS011;8773;43.300;0.394;2023-07-28T07:53:27;2.20;;;2.10;;
17310;SDS011;8773;43.300;0.394;2023-07-28T07:55:54;2.65;;;2.50;;
17310;SDS011;8773;43.300;0.394;2023-07-28T07:58:22;1.92;;;1.83;;
17310;SDS011;8773;43.300;0.394;2023-07-28T08:00:49;2.33;;;2.10;;
17310;SDS011;8773;43.300;0.394;2023-07-28T08:03:18;2.10;;;1.90;;
17310;SDS011;8773;43.300;0.394;2023-07-28T08:05:46;2.13;;;2.03;;
17310;SDS011;8773;43.300;0.394;2023-07-28T08:08:13;2.40;;;2.22;;
17310;SDS011;8773;43.300;0.394;2023-07-28T08:10:41;2.13;;;2.03;;
17310;SDS011;8773;43.300;0.394;2023-07-28T08:13:08;2.05;;;1.95;;
17310;SDS011;8773;43.300;0.394;2023-07-28T08:15:36;1.98;;;1.88;;
17310;SDS011;8773;43.300;0.394;2023-07-28T08:18:04;2.20;;;2.10;;
17310;SDS011;8773;43.300;0.394;2023-07-28T08:20:33;3.83;;;2.20;;
17310;SDS011;8773;43.300;0.394;2023-07-28T08:23:00;2.25;;;2.15;;
17310;SDS011;8773;43.300;0.394;2023-07-28T08:25:28;2.30;;;2.20;;
17310;SDS011;8773;43.300;0.394;2023-07-28T08:27:56;2.22;;;2.00;;
17310;SDS011;8773;43.300;0.394;2023-07-28T08:30:23;2.20;;;2.10;;
17310;SDS011;8773;43.300;0.394;2023-07-28T08:32:51;2.17;;;2.08;;
17310;SDS011;8773;43.300;0.394;2023-07-28T08:35:18;2.67;;;2.28;;
17310;SDS011;8773;43.300;0.394;2023-07-28T08:37:47;2.35;;;2.15;;
17310;SDS011;8773;43.300;0.394;2023-07-28T08:40:18;2.20;;;2.10;;
17310;SDS011;8773;43.300;0.394;2023-07-28T08:42:45;2.70;;;2.60;;
17310;SDS011;8773;43.300;0.394;2023-07-28T08:45:13;2.60;;;2.40;;
17310;SDS011;8773;43.300;0.394;2023-07-28T08:47:41;2.30;;;2.20;;
17310;SDS011;8773;43.300;0.394;2023-07-28T08:50:09;2.47;;;2.38;;
17310;SDS011;8773;43.300;0.394;2023-07-28T08:52:37;2.38;;;2.28;;
17310;SDS011;8773;43.300;0.394;2023-07-28T08:55:06;2.83;;;2.10;;
17310;SDS011;8773;43.300;0.394;2023-07-28T08:57:34;2.35;;;2.25;;
17310;SDS011;8773;43.300;0.394;2023-07-28T09:00:06;3.13;;;2.42;;
17310;SDS011;8773;43.300;0.394;2023-07-28T09:02:34;2.42;;;2.22;;
17310;SDS011;8773;43.300;0.394;2023-07-28T09:05:02;2.38;;;2.20;;
17310;SDS011;8773;43.300;0.394;2023-07-28T09:07:33;2.40;;;2.30;;
17310;SDS011;8773;43.300;0.394;2023-07-28T09:10:02;2.58;;;2.38;;
17310;SDS011;8773;43.300;0.394;2023-07-28T09:12:32;2.53;;;2.42;;
17310;SDS011;8773;43.300;0.394;2023-07-28T09:14:59;2.70;;;2.50;;
17310;SDS011;8773;43.300;0.394;2023-07-28T09:17:27;2.60;;;2.40;;
17310;SDS011;8773;43.300;0.394;2023-07-28T09:19:59;2.45;;;2.35;;
17310;SDS011;8773;43.300;0.394;2023-07-28T09:22:26;3.38;;;2.33;;
17310;SDS011;8773;43.300;0.394;2023-07-28T09:24:56;2.67;;;2.58;;
17310;SDS011;8773;43.300;0.394;2023-07-28T09:27:25;2.40;;;2.30;;
17310;SDS011;8773;43.300;0.394;2023-07-28T09:29:55;2.42;;;2.33;;
17310;SDS011;8773;43.300;0.394;2023-07-28T09:32:26;2.53;;;2.42;;
17310;SDS011;8773;43.300;0.394;2023-07-28T09:35:07;2.50;;;2.40;;
17310;SDS011;8773;43.300;0.394;2023-07-28T09:37:36;2.42;;;2.22;;
17310;SDS011;8773;43.300;0.394;2023-07-28T09:40:06;2.67;;;2.50;;
17310;SDS011;8773;43.300;0.394;2023-07-28T09:42:35;2.15;;;2.05;;
17310;SDS011;8773;43.300;0.394;2023-07-28T09:45:05;2.47;;;2.38;;
17310;SDS011;8773;43.300;0.394;2023-07-28T09:47:33;2.22;;;2.13;;
17310;SDS011;8773;43.300;0.394;2023-07-28T09:50:01;2.22;;;2.13;;
17310;SDS011;8773;43.300;0.394;2023-07-28T09:52:31;2.53;;;2.33;;
17310;SDS011;8773;43.300;0.394;2023-07-28T09:55:03;2.25;;;2.15;;
17310;SDS011;8773;43.300;0.394;2023-07-28T09:57:36;2.60;;;2.40;;
17310;SDS011;8773;43.300;0.394;2023-07-28T10:00:10;3.15;;;2.40;;
17310;SDS011;8773;43.300;0.394;2023-07-28T10:02:39;2.30;;;2.20;;
17310;SDS011;8773;43.300;0.394;2023-07-28T10:05:07;2.08;;;1.98;;
17310;SDS011;8773;43.300;0.394;2023-07-28T10:07:35;2.38;;;2.25;;
17310;SDS011;8773;43.300;0.394;2023-07-28T10:10:07;2.75;;;2.55;;
17310;SDS011;8773;43.300;0.394;2023-07-28T10:12:40;2.55;;;2.42;;
17310;SDS011;8773;43.300;0.394;2023-07-28T10:15:13;2.80;;;2.60;;
17310;SDS011;8773;43.300;0.394;2023-07-28T10:17:43;2.60;;;2.50;;
17310;SDS011;8773;43.300;0.394;2023-07-28T10:20:27;2.65;;;2.47;;
17310;SDS011;8773;43.300;0.394;2023-07-28T10:23:05;2.60;;;2.40;;
17310;SDS011;8773;43.300;0.394;2023-07-28T10:25:35;2.60;;;2.50;;
17310;SDS011;8773;43.300;0.394;2023-07-28T10:28:03;2.20;;;2.10;;
17310;SDS011;8773;43.300;0.394;2023-07-28T10:30:36;3.00;;;2.80;;
17310;SDS011;8773;43.300;0.394;2023-07-28T10:33:05;2.50;;;2.40;;
17310;SDS011;8773;43.300;0.394;2023-07-28T10:35:33;2.55;;;2.40;;
17310;SDS011;8773;43.300;0.394;2023-07-28T10:41:05;3.58;;;2.22;;
17310;SDS011;8773;43.300;0.394;2023-07-28T10:43:34;2.28;;;2.17;;
17310;SDS011;8773;43.300;0.394;2023-07-28T10:46:03;2.25;;;2.13;;
17310;SDS011;8773;43.300;0.394;2023-07-28T10:48:31;2.65;;;2.55;;
17310;SDS011;8773;43.300;0.394;2023-07-28T10:50:59;2.72;;;2.58;;
17310;SDS011;8773;43.300;0.394;2023-07-28T10:53:28;2.33;;;2.22;;
17310;SDS011;8773;43.300;0.394;2023-07-28T10:55:56;2.53;;;2.42;;
17310;SDS011;8773;43.300;0.394;2023-07-28T10:58:23;2.53;;;2.42;;
17310;SDS011;8773;43.300;0.394;2023-07-28T11:00:51;2.42;;;2.22;;
17310;SDS011;8773;43.300;0.394;2023-07-28T11:03:20;2.55;;;2.30;;
17310;SDS011;8773;43.300;0.394;2023-07-28T11:05:49;2.88;;;2.58;;
17310;SDS011;8773;43.300;0.394;2023-07-28T11:08:17;2.78;;;2.67;;
17310;SDS011;8773;43.300;0.394;2023-07-28T11:10:44;2.42;;;2.30;;
17310;SDS011;8773;43.300;0.394;2023-07-28T11:13:12;2.65;;;2.50;;
17310;SDS011;8773;43.300;0.394;2023-07-28T11:15:58;2.42;;;2.33;;
17310;SDS011;8773;43.300;0.394;2023-07-28T11:18:29;2.22;;;2.13;;
17310;SDS011;8773;43.300;0.394;2023-07-28T11:20:56;2.45;;;2.35;;
17310;SDS011;8773;43.300;0.394;2023-07-28T11:23:24;2.47;;;2.38;;
17310;SDS011;8773;43.300;0.394;2023-07-28T11:25:51;2.45;;;2.25;;
17310;SDS011;8773;43.300;0.394;2023-07-28T11:28:19;2.67;;;2.53;;
17310;SDS011;8773;43.300;0.394;2023-07-28T11:30:47;2.70;;;2.60;;
17310;SDS011;8773;43.300;0.394;2023-07-28T11:33:14;2.47;;;2.28;;
17310;SDS011;8773;43.300;0.394;2023-07-28T11:35:45;2.47;;;2.38;;
17310;SDS011;8773;43.300;0.394;2023-07-28T11:38:12;2.50;;;2.40;;
17310;SDS011;8773;43.300;0.394;2023-07-28T11:40:41;2.15;;;2.05;;
17310;SDS011;8773;43.300;0.394;2023-07-28T11:43:09;2.40;;;2.30;;
17310;SDS011;8773;43.300;0.394;2023-07-28T11:45:37;3.30;;;2.60;;
17310;SDS011;8773;43.300;0.394;2023-07-28T11:48:05;2.50;;;2.30;;
17310;SDS011;8773;43.300;0.394;2023-07-28T11:50:34;2.47;;;2.28;;
17310;SDS011;8773;43.300;0.394;2023-07-28T11:53:05;2.78;;;2.53;;
17310;SDS011;8773;43.300;0.394;2023-07-28T11:55:34;2.22;;;2.13;;
17310;SDS011;8773;43.300;0.394;2023-07-28T11:58:02;2.58;;;2.47;;
17310;SDS011;8773;43.300;0.394;2023-07-28T12:00:32;2.58;;;2.47;;
17310;SDS011;8773;43.300;0.394;2023-07-28T12:03:02;2.42;;;2.33;;
17310;SDS011;8773;43.300;0.394;2023-07-28T12:05:32;2.90;;;2.70;;
17310;SDS011;8773;43.300;0.394;2023-07-28T12:08:00;2.63;;;2.50;;
17310;SDS011;8773;43.300;0.394;2023-07-28T12:10:29;2.67;;;2.58;;
17310;SDS011;8773;43.300;0.394;2023-07-28T12:13:03;2.78;;;2.58;;
17310;SDS011;8773;43.300;0.394;2023-07-28T12:15:39;2.60;;;2.50;;
17310;SDS011;8773;43.300;0.394;2023-07-28T12:18:11;2.78;;;2.60;;
17310;SDS011;8773;43.300;0.394;2023-07-28T12:20:43;2.70;;;2.50;;
17310;SDS011;8773;43.300;0.394;2023-07-28T12:23:11;2.53;;;2.42;;
17310;SDS011;8773;43.300;0.394;2023-07-28T12:25:44;2.72;;;2.63;;
17310;SDS011;8773;43.300;0.394;2023-07-28T12:28:12;2.42;;;2.22;;
17310;SDS011;8773;43.300;0.394;2023-07-28T12:30:42;2.70;;;2.60;;
17310;SDS011;8773;43.300;0.394;2023-07-28T12:33:10;3.00;;;2.80;;
17310;SDS011;8773;43.300;0.394;2023-07-28T12:35:40;2.63;;;2.53;;
17310;SDS011;8773;43.300;0.394;2023-07-28T12:38:11;2.97;;;2.78;;
17310;SDS011;8773;43.300;0.394;2023-07-28T12:40:41;2.80;;;2.70;;
17310;SDS011;8773;43.300;0.394;2023-07-28T12:43:13;2.92;;;2.63;;
17310;SDS011;8773;43.300;0.394;2023-07-28T12:45:43;2.95;;;2.83;;
17310;SDS011;8773;43.300;0.394;2023-07-28T12:48:13;2.83;;;2.67;;
17310;SDS011;8773;43.300;0.394;2023-07-28T12:50:43;2.40;;;2.30;;
17310;SDS011;8773;43.300;0.394;2023-07-28T12:53:11;2.90;;;2.80;;
17310;SDS011;8773;43.300;0.394;2023-07-28T12:55:42;2.80;;;2.70;;
17310;SDS011;8773;43.300;0.394;2023-07-28T12:58:14;3.05;;;2.85;;
17310;SDS011;8773;43.300;0.394;2023-07-28T13:00:44;2.47;;;2.38;;
17310;SDS011;8773;43.300;0.394;2023-07-28T13:03:15;2.72;;;2.60;;
17310;SDS011;8773;43.300;0.394;2023-07-28T13:05:42;4.03;;;2.80;;
17310;SDS011;8773;43.300;0.394;2023-07-28T13:08:10;2.65;;;2.55;;
17310;SDS011;8773;43.300;0.394;2023-07-28T13:10:37;3.05;;;2.70;;
17310;SDS011;8773;43.300;0.394;2023-07-28T13:13:08;2.70;;;2.60;;
17310;SDS011;8773;43.300;0.394;2023-07-28T13:15:40;3.08;;;2.88;;
17310;SDS011;8773;43.300;0.394;2023-07-28T13:18:08;2.72;;;2.63;;
17310;SDS011;8773;43.300;0.394;2023-07-28T13:20:36;2.80;;;2.70;;
17310;SDS011;8773;43.300;0.394;2023-07-28T13:23:03;2.70;;;2.60;;
17310;SDS011;8773;43.300;0.394;2023-07-28T13:25:31;2.60;;;2.50;;
17310;SDS011;8773;43.300;0.394;2023-07-28T13:27:58;2.95;;;2.85;;
17310;SDS011;8773;43.300;0.394;2023-07-28T13:30:26;3.00;;;2.90;;
17310;SDS011;8773;43.300;0.394;2023-07-28T13:32:57;2.78;;;2.67;;
17310;SDS011;8773;43.300;0.394;2023-07-28T13:35:25;3.08;;;2.83;;
17310;SDS011;8773;43.300;0.394;2023-07-28T13:37:52;2.97;;;2.72;;
17310;SDS011;8773;43.300;0.394;2023-07-28T13:40:20;3.03;;;2.83;;
17310;SDS011;8773;43.300;0.394;2023-07-28T13:42:48;3.17;;;2.90;;
17310;SDS011;8773;43.300;0.394;2023-07-28T13:45:15;3.10;;;3.00;;
17310;SDS011;8773;43.300;0.394;2023-07-28T13:47:43;2.72;;;2.63;;
17310;SDS011;8773;43.300;0.394;2023-07-28T13:50:12;2.90;;;2.80;;
17310;SDS011;8773;43.300;0.394;2023-07-28T13:52:39;2.90;;;2.70;;
17310;SDS011;8773;43.300;0.394;2023-07-28T13:55:07;3.38;;;3.08;;
17310;SDS011;8773;43.300;0.394;2023-07-28T13:57:38;3.22;;;3.03;;
17310;SDS011;8773;43.300;0.394;2023-07-28T14:00:06;2.65;;;2.55;;
17310;SDS011;8773;43.300;0.394;2023-07-28T14:02:35;3.03;;;2.83;;
17310;SDS011;8773;43.300;0.394;2023-07-28T14:05:02;3.10;;;2.90;;
17310;SDS011;8773;43.300;0.394;2023-07-28T14:07:32;2.80;;;2.60;;
17310;SDS011;8773;43.300;0.394;2023-07-28T14:10:00;2.50;;;2.40;;
17310;SDS011;8773;43.300;0.394;2023-07-28T14:12:29;3.13;;;2.92;;
17310;SDS011;8773;43.300;0.394;2023-07-28T14:14:56;2.90;;;2.70;;
17310;SDS011;8773;43.300;0.394;2023-07-28T14:17:24;2.75;;;2.65;;
17310;SDS011;8773;43.300;0.394;2023-07-28T14:19:52;3.13;;;2.88;;
17310;SDS011;8773;43.300;0.394;2023-07-28T14:22:19;3.67;;;3.47;;
17310;SDS011;8773;43.300;0.394;2023-07-28T14:24:48;2.88;;;2.78;;
17310;SDS011;8773;43.300;0.394;2023-07-28T14:27:16;2.85;;;2.65;;
17310;SDS011;8773;43.300;0.394;2023-07-28T14:29:43;3.08;;;2.88;;
17310;SDS011;8773;43.300;0.394;2023-07-28T14:32:11;3.17;;;2.97;;
17310;SDS011;8773;43.300;0.394;2023-07-28T14:34:38;2.83;;;2.72;;
17310;SDS011;8773;43.300;0.394;2023-07-28T14:37:06;2.70;;;2.60;;
17310;SDS011;8773;43.300;0.394;2023-07-28T14:39:34;2.80;;;2.70;;
17310;SDS011;8773;43.300;0.394;2023-07-28T14:42:03;2.67;;;2.58;;
17310;SDS011;8773;43.300;0.394;2023-07-28T14:44:31;3.30;;;3.10;;
17310;SDS011;8773;43.300;0.394;2023-07-28T14:46:59;3.00;;;2.90;;
17310;SDS011;8773;43.300;0.394;2023-07-28T14:49:26;3.00;;;2.80;;
17310;SDS011;8773;43.300;0.394;2023-07-28T14:51:54;2.70;;;2.55;;
17310;SDS011;8773;43.300;0.394;2023-07-28T14:54:21;3.20;;;2.88;;
17310;SDS011;8773;43.300;0.394;2023-07-28T14:56:49;3.05;;;2.60;;
17310;SDS011;8773;43.300;0.394;2023-07-28T14:59:18;3.15;;;3.05;;
17310;SDS011;8773;43.300;0.394;2023-07-28T15:01:46;3.10;;;3.00;;
17310;SDS011;8773;43.300;0.394;2023-07-28T15:04:13;3.20;;;3.00;;
17310;SDS011;8773;43.300;0.394;2023-07-28T15:06:41;3.35;;;3.15;;
17310;SDS011;8773;43.300;0.394;2023-07-28T15:09:11;2.78;;;2.65;;
17310;SDS011;8773;43.300;0.394;2023-07-28T15:11:38;3.20;;;3.00;;